sensor_id;sensor_type;location;lat;lon;timestamp;pressure;altitude;pressure_sealevel;temperature;humidity
78016;BME280;67223;51.102;5.882;2023-10-19T00:00:36;99330.34;;;11.86;100.00
78016;BME280;67223;51.102;5.882;2023-10-19T00:03:05;99333.53;;;11.90;100.00
78016;BME280;67223;51.102;5.882;2023-10-19T00:05:33;99333.53;;;11.90;100.00
78016;BME280;67223;51.102;5.882;2023-10-19T00:08:00;99329.50;;;11.94;100.00
78016;BME280;67223;51.102;5.882;2023-10-19T00:10:27;99324.81;;;11.96;100.00
78016;BME280;67223;51.102;5.882;2023-10-19T00:13:00;99333.34;;;11.99;100.00
78016;BME280;67223;51.102;5.882;2023-10-19T00:15:29;99323.97;;;12.03;100.00
78016;BME280;67223;51.102;5.882;2023-10-19T00:17:57;99329.81;;;12.07;100.00
78016;BME280;67223;51.102;5.882;2023-10-19T00:20:24;99323.94;;;12.12;100.00
78016;BME280;67223;51.102;5.882;2023-10-19T00:23:01;99330.59;;;12.16;100.00
78016;BME280;67223;51.102;5.882;2023-10-19T00:25:31;99324.09;;;12.18;100.00
78016;BME280;67223;51.102;5.882;2023-10-19T00:27:58;99318.22;;;12.23;100.00
78016;BME280;67223;51.102;5.882;2023-10-19T00:30:25;99327.78;;;12.25;100.00
78016;BME280;67223;51.102;5.882;2023-10-19T00:32:56;99321.69;;;12.31;100.00
78016;BME280;67223;51.102;5.882;2023-10-19T00:35:21;99326.72;;;12.34;100.00
78016;BME280;67223;51.102;5.882;2023-10-19T00:38:07;99337.75;;;12.39;100.00
78016;BME280;67223;51.102;5.882;2023-10-19T00:40:51;99336.72;;;12.40;100.00
78016;BME280;67223;51.102;5.882;2023-10-19T00:43:31;99336.88;;;12.47;100.00
78016;BME280;67223;51.102;5.882;2023-10-19T00:46:02;99346.56;;;12.48;100.00
78016;BME280;67223;51.102;5.882;2023-10-19T00:48:52;99350.88;;;12.57;100.00
78016;BME280;67223;51.102;5.882;2023-10-19T00:51:21;99348.56;;;12.54;100.00
78016;BME280;67223;51.102;5.882;2023-10-19T00:54:04;99345.00;;;12.62;100.00
78016;BME280;67223;51.102;5.882;2023-10-19T00:56:35;99347.16;;;12.66;100.00
78016;BME280;67223;51.102;5.882;2023-10-19T00:59:03;99350.81;;;12.73;100.00
78016;BME280;67223;51.102;5.882;2023-10-19T01:01:40;99343.94;;;12.79;100.00
78016;BME280;67223;51.102;5.882;2023-10-19T01:04:11;99346.72;;;12.85;100.00
78016;BME280;67223;51.102;5.882;2023-10-19T01:06:41;99351.69;;;12.97;100.00
78016;BME280;67223;51.102;5.882;2023-10-19T01:09:12;99359.31;;;13.16;100.00
78016;BME280;67223;51.102;5.882;2023-10-19T01:11:43;99355.88;;;13.30;100.00
78016;BME280;67223;51.102;5.882;2023-10-19T01:14:22;99364.16;;;13.43;100.00
78016;BME280;67223;51.102;5.882;2023-10-19T01:16:48;99374.50;;;13.54;100.00
78016;BME280;67223;51.102;5.882;2023-10-19T01:19:15;99377.09;;;13.62;100.00
78016;BME280;67223;51.102;5.882;2023-10-19T01:21:44;99383.72;;;13.74;100.00
78016;BME280;67223;51.102;5.882;2023-10-19T01:24:21;99387.63;;;13.87;100.00
78016;BME280;67223;51.102;5.882;2023-10-19T01:27:07;99387.19;;;13.98;100.00
78016;BME280;67223;51.102;5.882;2023-10-19T01:29:35;99385.34;;;13.98;100.00
78016;BME280;67223;51.102;5.882;2023-10-19T01:32:03;99371.19;;;14.04;100.00
78016;BME280;67223;51.102;5.882;2023-10-19T01:34:32;99376.03;;;14.09;100.00
78016;BME280;67223;51.102;5.882;2023-10-19T01:36:59;99357.22;;;14.09;100.00
78016;BME280;67223;51.102;5.882;2023-10-19T01:39:28;99360.63;;;14.03;100.00
78016;BME280;67223;51.102;5.882;2023-10-19T01:41:53;99356.28;;;14.02;100.00
78016;BME280;67223;51.102;5.882;2023-10-19T01:44:19;99355.56;;;14.08;100.00
78016;BME280;67223;51.102;5.882;2023-10-19T01:46:46;99351.19;;;14.07;100.00
78016;BME280;67223;51.102;5.882;2023-10-19T01:49:13;99340.75;;;14.12;100.00
78016;BME280;67223;51.102;5.882;2023-10-19T01:51:39;99334.81;;;14.16;100.00
78016;BME280;67223;51.102;5.882;2023-10-19T01:54:08;99328.44;;;14.17;100.00
78016;BME280;67223;51.102;5.882;2023-10-19T01:56:34;99321.50;;;14.23;100.00
78016;BME280;67223;51.102;5.882;2023-10-19T01:59:02;99318.16;;;14.21;100.00
78016;BME280;67223;51.102;5.882;2023-10-19T02:01:28;99307.91;;;14.25;100.00
78016;BME280;67223;51.102;5.882;2023-10-19T02:04:02;99302.16;;;14.28;100.00
78016;BME280;67223;51.102;5.882;2023-10-19T02:06:32;99305.09;;;14.33;100.00
78016;BME280;67223;51.102;5.882;2023-10-19T02:11:55;99297.78;;;14.27;100.00
78016;BME280;67223;51.102;5.882;2023-10-19T02:14:21;99292.25;;;14.28;100.00
78016;BME280;67223;51.102;5.882;2023-10-19T02:16:49;99294.94;;;14.28;100.00
78016;BME280;67223;51.102;5.882;2023-10-19T02:19:19;99294.94;;;14.28;100.00
78016;BME280;67223;51.102;5.882;2023-10-19T02:21:51;99287.50;;;14.30;100.00
78016;BME280;67223;51.102;5.882;2023-10-19T02:24:18;99291.22;;;14.29;100.00
78016;BME280;67223;51.102;5.882;2023-10-19T02:26:45;99289.84;;;14.33;100.00
78016;BME280;67223;51.102;5.882;2023-10-19T02:29:12;99285.09;;;14.35;100.00
78016;BME280;67223;51.102;5.882;2023-10-19T02:31:38;99281.56;;;14.35;100.00
78016;BME280;67223;51.102;5.882;2023-10-19T02:34:05;99284.63;;;14.32;100.00
78016;BME280;67223;51.102;5.882;2023-10-19T02:36:33;99277.81;;;14.29;100.00
78016;BME280;67223;51.102;5.882;2023-10-19T02:39:00;99274.47;;;14.27;100.00
78016;BME280;67223;51.102;5.882;2023-10-19T02:41:32;99273.06;;;14.31;100.00
78016;BME280;67223;51.102;5.882;2023-10-19T02:44:00;99271.59;;;14.29;100.00
78016;BME280;67223;51.102;5.882;2023-10-19T02:46:37;99273.72;;;14.33;100.00
78016;BME280;67223;51.102;5.882;2023-10-19T02:49:07;99273.91;;;14.32;100.00
78016;BME280;67223;51.102;5.882;2023-10-19T02:51:44;99272.44;;;14.29;100.00
78016;BME280;67223;51.102;5.882;2023-10-19T02:54:10;99273.25;;;14.30;100.00
78016;BME280;67223;51.102;5.882;2023-10-19T02:56:43;99266.69;;;14.32;100.00
78016;BME280;67223;51.102;5.882;2023-10-19T02:59:12;99257.78;;;14.32;100.00
78016;BME280;67223;51.102;5.882;2023-10-19T03:01:41;99257.59;;;14.33;100.00
78016;BME280;67223;51.102;5.882;2023-10-19T03:04:10;99250.03;;;14.37;100.00
78016;BME280;67223;51.102;5.882;2023-10-19T03:06:38;99253.91;;;14.34;100.00
78016;BME280;67223;51.102;5.882;2023-10-19T03:09:05;99252.25;;;14.33;100.00
78016;BME280;67223;51.102;5.882;2023-10-19T03:11:56;99256.78;;;14.33;100.00
78016;BME280;67223;51.102;5.882;2023-10-19T03:14:25;99256.94;;;14.31;100.00
78016;BME280;67223;51.102;5.882;2023-10-19T03:16:52;99255.94;;;14.32;100.00
78016;BME280;67223;51.102;5.882;2023-10-19T03:19:20;99258.44;;;14.34;100.00
78016;BME280;67223;51.102;5.882;2023-10-19T03:21:45;99249.72;;;14.32;100.00
78016;BME280;67223;51.102;5.882;2023-10-19T03:24:31;99252.59;;;14.30;100.00
78016;BME280;67223;51.102;5.882;2023-10-19T03:27:10;99253.63;;;14.29;100.00
78016;BME280;67223;51.102;5.882;2023-10-19T03:29:49;99255.47;;;14.29;100.00
78016;BME280;67223;51.102;5.882;2023-10-19T03:32:24;99244.75;;;14.29;100.00
78016;BME280;67223;51.102;5.882;2023-10-19T03:34:54;99242.91;;;14.29;100.00
78016;BME280;67223;51.102;5.882;2023-10-19T03:37:26;99237.13;;;14.32;100.00
78016;BME280;67223;51.102;5.882;2023-10-19T03:39:54;99238.81;;;14.33;100.00
78016;BME280;67223;51.102;5.882;2023-10-19T03:42:24;99237.78;;;14.34;100.00
78016;BME280;67223;51.102;5.882;2023-10-19T03:44:57;99232.22;;;14.36;100.00
78016;BME280;67223;51.102;5.882;2023-10-19T03:47:23;99226.69;;;14.37;100.00
78016;BME280;67223;51.102;5.882;2023-10-19T03:50:09;99231.22;;;14.37;100.00
78016;BME280;67223;51.102;5.882;2023-10-19T03:52:39;99232.44;;;14.34;100.00
78016;BME280;67223;51.102;5.882;2023-10-19T03:55:06;99223.72;;;14.32;100.00
78016;BME280;67223;51.102;5.882;2023-10-19T03:57:36;99227.41;;;14.31;100.00
78016;BME280;67223;51.102;5.882;2023-10-19T04:00:07;99229.00;;;14.26;100.00
78016;BME280;67223;51.102;5.882;2023-10-19T04:05:09;99225.75;;;14.15;100.00
78016;BME280;67223;51.102;5.882;2023-10-19T04:07:40;99223.91;;;14.16;100.00
78016;BME280;67223;51.102;5.882;2023-10-19T04:10:06;99224.91;;;14.15;100.00
78016;BME280;67223;51.102;5.882;2023-10-19T04:12:33;99228.94;;;14.19;100.00
78016;BME280;67223;51.102;5.882;2023-10-19T04:15:02;99230.22;;;14.23;100.00
78016;BME280;67223;51.102;5.882;2023-10-19T04:17:36;99231.22;;;14.22;100.00
78016;BME280;67223;51.102;5.882;2023-10-19T04:20:04;99232.34;;;14.28;100.00
78016;BME280;67223;51.102;5.882;2023-10-19T04:22:39;99238.88;;;14.25;100.00
78016;BME280;67223;51.102;5.882;2023-10-19T04:25:05;99240.94;;;14.23;100.00
78016;BME280;67223;51.102;5.882;2023-10-19T04:27:31;99238.25;;;14.23;100.00
78016;BME280;67223;51.102;5.882;2023-10-19T04:30:01;99235.19;;;14.26;100.00
78016;BME280;67223;51.102;5.882;2023-10-19T04:32:26;99235.41;;;14.25;100.00
78016;BME280;67223;51.102;5.882;2023-10-19T04:34:55;99237.31;;;14.31;100.00
78016;BME280;67223;51.102;5.882;2023-10-19T04:37:20;99229.25;;;14.31;100.00
78016;BME280;67223;51.102;5.882;2023-10-19T04:39:49;99238.09;;;14.25;100.00
78016;BME280;67223;51.102;5.882;2023-10-19T04:42:15;99242.13;;;14.20;100.00
78016;BME280;67223;51.102;5.882;2023-10-19T04:44:40;99252.25;;;14.18;100.00
78016;BME280;67223;51.102;5.882;2023-10-19T04:47:05;99261.50;;;14.16;100.00
78016;BME280;67223;51.102;5.882;2023-10-19T04:49:31;99254.09;;;14.18;100.00
78016;BME280;67223;51.102;5.882;2023-10-19T04:51:56;99249.91;;;14.15;100.00
78016;BME280;67223;51.102;5.882;2023-10-19T04:54:21;99252.16;;;14.12;100.00
78016;BME280;67223;51.102;5.882;2023-10-19T04:56:46;99253.44;;;14.16;100.00
78016;BME280;67223;51.102;5.882;2023-10-19T04:59:13;99252.44;;;14.17;100.00
78016;BME280;67223;51.102;5.882;2023-10-19T05:01:39;99250.84;;;14.22;100.00
78016;BME280;67223;51.102;5.882;2023-10-19T05:04:06;99254.94;;;14.48;100.00
78016;BME280;67223;51.102;5.882;2023-10-19T05:06:31;99247.03;;;14.46;100.00
78016;BME280;67223;51.102;5.882;2023-10-19T05:08:57;99246.16;;;14.39;100.00
78016;BME280;67223;51.102;5.882;2023-10-19T05:11:22;99251.41;;;14.33;100.00
78016;BME280;67223;51.102;5.882;2023-10-19T05:13:48;99246.88;;;14.33;100.00
78016;BME280;67223;51.102;5.882;2023-10-19T05:16:13;99247.88;;;14.32;100.00
78016;BME280;67223;51.102;5.882;2023-10-19T05:18:39;99253.56;;;14.37;100.00
78016;BME280;67223;51.102;5.882;2023-10-19T05:21:04;99262.63;;;14.36;100.00
78016;BME280;67223;51.102;5.882;2023-10-19T05:23:30;99265.38;;;14.28;100.00
78016;BME280;67223;51.102;5.882;2023-10-19T05:26:04;99261.22;;;14.26;100.00
78016;BME280;67223;51.102;5.882;2023-10-19T05:28:30;99249.63;;;14.25;100.00
78016;BME280;67223;51.102;5.882;2023-10-19T05:30:55;99248.28;;;14.44;100.00
78016;BME280;67223;51.102;5.882;2023-10-19T05:33:20;99240.66;;;14.33;100.00
78016;BME280;67223;51.102;5.882;2023-10-19T05:35:47;99248.19;;;14.37;100.00
78016;BME280;67223;51.102;5.882;2023-10-19T05:38:12;99252.53;;;14.38;100.00
78016;BME280;67223;51.102;5.882;2023-10-19T05:40:38;99251.00;;;14.36;100.00
78016;BME280;67223;51.102;5.882;2023-10-19T05:43:04;99256.03;;;14.53;100.00
78016;BME280;67223;51.102;5.882;2023-10-19T05:45:30;99262.53;;;14.44;100.00
78016;BME280;67223;51.102;5.882;2023-10-19T05:47:57;99255.94;;;14.47;100.00
78016;BME280;67223;51.102;5.882;2023-10-19T05:50:24;99258.81;;;14.45;100.00
78016;BME280;67223;51.102;5.882;2023-10-19T05:52:50;99263.44;;;14.51;100.00
78016;BME280;67223;51.102;5.882;2023-10-19T05:55:17;99263.13;;;14.61;100.00
78016;BME280;67223;51.102;5.882;2023-10-19T05:57:43;99265.06;;;14.67;100.00
78016;BME280;67223;51.102;5.882;2023-10-19T06:00:11;99264.69;;;14.70;100.00
78016;BME280;67223;51.102;5.882;2023-10-19T06:02:45;99270.00;;;14.63;100.00
78016;BME280;67223;51.102;5.882;2023-10-19T06:05:11;99264.84;;;14.83;100.00
78016;BME280;67223;51.102;5.882;2023-10-19T06:07:37;99254.03;;;14.98;100.00
78016;BME280;67223;51.102;5.882;2023-10-19T06:10:03;99272.69;;;14.85;100.00
78016;BME280;67223;51.102;5.882;2023-10-19T06:12:32;99261.41;;;14.75;100.00
78016;BME280;67223;51.102;5.882;2023-10-19T06:14:59;99273.31;;;14.65;100.00
78016;BME280;67223;51.102;5.882;2023-10-19T06:17:28;99273.97;;;14.68;100.00
78016;BME280;67223;51.102;5.882;2023-10-19T06:19:54;99276.56;;;14.61;100.00
78016;BME280;67223;51.102;5.882;2023-10-19T06:22:20;99283.78;;;14.60;100.00
78016;BME280;67223;51.102;5.882;2023-10-19T06:24:46;99283.91;;;14.52;100.00
78016;BME280;67223;51.102;5.882;2023-10-19T06:27:11;99286.97;;;14.49;100.00
78016;BME280;67223;51.102;5.882;2023-10-19T06:29:36;99299.56;;;14.49;100.00
78016;BME280;67223;51.102;5.882;2023-10-19T06:32:02;99309.19;;;14.58;100.00
78016;BME280;67223;51.102;5.882;2023-10-19T06:34:28;99305.41;;;14.52;100.00
78016;BME280;67223;51.102;5.882;2023-10-19T06:36:53;99300.88;;;14.53;100.00
78016;BME280;67223;51.102;5.882;2023-10-19T06:39:20;99308.75;;;14.54;100.00
78016;BME280;67223;51.102;5.882;2023-10-19T06:41:46;99300.56;;;14.62;100.00
78016;BME280;67223;51.102;5.882;2023-10-19T06:44:13;99317.25;;;14.58;100.00
78016;BME280;67223;51.102;5.882;2023-10-19T06:46:38;99310.03;;;14.58;100.00
78016;BME280;67223;51.102;5.882;2023-10-19T06:49:04;99306.28;;;14.59;100.00
78016;BME280;67223;51.102;5.882;2023-10-19T06:51:30;99319.72;;;14.59;100.00
78016;BME280;67223;51.102;5.882;2023-10-19T06:53:55;99321.13;;;14.55;100.00
78016;BME280;67223;51.102;5.882;2023-10-19T06:56:21;99315.47;;;14.65;100.00
78016;BME280;67223;51.102;5.882;2023-10-19T06:58:46;99321.88;;;14.64;100.00
78016;BME280;67223;51.102;5.882;2023-10-19T07:01:13;99323.16;;;14.68;100.00
78016;BME280;67223;51.102;5.882;2023-10-19T07:03:41;99324.28;;;14.74;100.00
78016;BME280;67223;51.102;5.882;2023-10-19T07:06:07;99320.19;;;14.78;100.00
78016;BME280;67223;51.102;5.882;2023-10-19T07:08:33;99321.06;;;14.85;100.00
78016;BME280;67223;51.102;5.882;2023-10-19T07:10:58;99324.81;;;14.84;100.00
78016;BME280;67223;51.102;5.882;2023-10-19T07:13:25;99320.06;;;14.86;100.00
78016;BME280;67223;51.102;5.882;2023-10-19T07:15:51;99327.09;;;14.87;100.00
78016;BME280;67223;51.102;5.882;2023-10-19T07:18:16;99325.25;;;14.87;100.00
78016;BME280;67223;51.102;5.882;2023-10-19T07:20:42;99329.34;;;14.83;100.00
78016;BME280;67223;51.102;5.882;2023-10-19T07:23:08;99323.84;;;14.91;100.00
78016;BME280;67223;51.102;5.882;2023-10-19T07:25:53;99323.22;;;14.89;100.00
78016;BME280;67223;51.102;5.882;2023-10-19T07:28:22;99325.69;;;14.91;100.00
78016;BME280;67223;51.102;5.882;2023-10-19T07:30:49;99324.50;;;14.93;100.00
78016;BME280;67223;51.102;5.882;2023-10-19T07:33:16;99318.28;;;14.93;100.00
78016;BME280;67223;51.102;5.882;2023-10-19T07:35:42;99331.34;;;14.96;100.00
78016;BME280;67223;51.102;5.882;2023-10-19T07:38:09;99328.28;;;14.99;100.00
78016;BME280;67223;51.102;5.882;2023-10-19T07:40:35;99320.41;;;14.97;100.00
78016;BME280;67223;51.102;5.882;2023-10-19T07:43:01;99315.88;;;14.98;100.00
78016;BME280;67223;51.102;5.882;2023-10-19T07:45:27;99321.59;;;14.95;100.00
78016;BME280;67223;51.102;5.882;2023-10-19T07:47:52;99323.66;;;14.93;100.00
78016;BME280;67223;51.102;5.882;2023-10-19T07:50:18;99315.59;;;14.93;100.00
78016;BME280;67223;51.102;5.882;2023-10-19T07:52:52;99308.72;;;14.90;100.00
78016;BME280;67223;51.102;5.882;2023-10-19T07:55:21;99307.06;;;15.04;100.00
78016;BME280;67223;51.102;5.882;2023-10-19T07:57:50;99304.09;;;14.99;100.00
78016;BME280;67223;51.102;5.882;2023-10-19T08:00:18;99303.72;;;15.02;100.00
78016;BME280;67223;51.102;5.882;2023-10-19T08:02:44;99306.25;;;15.10;100.00
78016;BME280;67223;51.102;5.882;2023-10-19T08:05:16;99296.75;;;15.07;100.00
78016;BME280;67223;51.102;5.882;2023-10-19T08:07:43;99302.69;;;15.24;100.00
78016;BME280;67223;51.102;5.882;2023-10-19T08:10:10;99296.69;;;15.43;100.00
78016;BME280;67223;51.102;5.882;2023-10-19T08:12:40;99300.91;;;15.74;100.00
78016;BME280;67223;51.102;5.882;2023-10-19T08:15:09;99290.72;;;15.97;100.00
78016;BME280;67223;51.102;5.882;2023-10-19T08:17:42;99284.19;;;16.19;100.00
78016;BME280;67223;51.102;5.882;2023-10-19T08:20:11;99282.09;;;16.56;100.00
78016;BME280;67223;51.102;5.882;2023-10-19T08:22:48;99270.78;;;16.67;100.00
78016;BME280;67223;51.102;5.882;2023-10-19T08:25:14;99271.13;;;16.57;100.00
78016;BME280;67223;51.102;5.882;2023-10-19T08:27:49;99262.38;;;17.09;100.00
78016;BME280;67223;51.102;5.882;2023-10-19T08:30:17;99255.38;;;17.21;100.00
78016;BME280;67223;51.102;5.882;2023-10-19T08:32:43;99236.91;;;17.51;100.00
78016;BME280;67223;51.102;5.882;2023-10-19T08:35:17;99233.53;;;17.95;100.00
78016;BME280;67223;51.102;5.882;2023-10-19T08:37:55;99221.06;;;18.01;100.00
78016;BME280;67223;51.102;5.882;2023-10-19T08:40:26;99219.25;;;18.39;100.00
78016;BME280;67223;51.102;5.882;2023-10-19T08:42:52;99203.78;;;18.66;100.00
78016;BME280;67223;51.102;5.882;2023-10-19T08:45:18;99198.13;;;18.74;100.00
78016;BME280;67223;51.102;5.882;2023-10-19T08:47:58;99195.38;;;19.12;100.00
78016;BME280;67223;51.102;5.882;2023-10-19T08:50:30;99187.81;;;19.21;100.00
78016;BME280;67223;51.102;5.882;2023-10-19T08:52:58;99188.16;;;19.31;100.00
78016;BME280;67223;51.102;5.882;2023-10-19T08:55:25;99188.09;;;18.81;100.00
78016;BME280;67223;51.102;5.882;2023-10-19T08:57:51;99183.88;;;18.54;100.00
78016;BME280;67223;51.102;5.882;2023-10-19T09:00:18;99189.31;;;18.47;100.00
78016;BME280;67223;51.102;5.882;2023-10-19T09:02:47;99188.16;;;18.24;100.00
78016;BME280;67223;51.102;5.882;2023-10-19T09:05:12;99187.06;;;18.82;100.00
78016;BME280;67223;51.102;5.882;2023-10-19T09:07:53;99173.78;;;19.30;100.00
78016;BME280;67223;51.102;5.882;2023-10-19T09:10:22;99162.84;;;19.19;100.00
78016;BME280;67223;51.102;5.882;2023-10-19T09:13:02;99161.41;;;18.91;100.00
78016;BME280;67223;51.102;5.882;2023-10-19T09:15:28;99151.91;;;18.82;100.00
78016;BME280;67223;51.102;5.882;2023-10-19T09:17:55;99149.19;;;18.82;100.00
78016;BME280;67223;51.102;5.882;2023-10-19T09:20:21;99157.03;;;19.15;100.00
78016;BME280;67223;51.102;5.882;2023-10-19T09:22:55;99157.75;;;19.04;100.00
78016;BME280;67223;51.102;5.882;2023-10-19T09:25:23;99138.53;;;18.56;100.00
78016;BME280;67223;51.102;5.882;2023-10-19T09:27:49;99155.38;;;18.89;100.00
78016;BME280;67223;51.102;5.882;2023-10-19T09:30:15;99157.72;;;18.79;100.00
78016;BME280;67223;51.102;5.882;2023-10-19T09:32:47;99157.47;;;18.87;100.00
78016;BME280;67223;51.102;5.882;2023-10-19T09:35:14;99153.19;;;18.73;100.00
78016;BME280;67223;51.102;5.882;2023-10-19T09:37:42;99156.13;;;18.72;100.00
78016;BME280;67223;51.102;5.882;2023-10-19T09:40:09;99155.81;;;18.55;100.00
78016;BME280;67223;51.102;5.882;2023-10-19T09:42:43;99158.13;;;18.45;100.00
78016;BME280;67223;51.102;5.882;2023-10-19T09:45:12;99163.19;;;18.28;100.00
78016;BME280;67223;51.102;5.882;2023-10-19T09:47:41;99158.66;;;18.22;100.00
78016;BME280;67223;51.102;5.882;2023-10-19T09:50:09;99162.59;;;18.26;100.00
78016;BME280;67223;51.102;5.882;2023-10-19T09:52:37;99151.56;;;18.28;100.00
78016;BME280;67223;51.102;5.882;2023-10-19T09:55:10;99151.50;;;18.34;100.00
78016;BME280;67223;51.102;5.882;2023-10-19T10:00:47;99152.78;;;18.32;100.00
78016;BME280;67223;51.102;5.882;2023-10-19T10:03:44;99146.53;;;18.38;100.00
78016;BME280;67223;51.102;5.882;2023-10-19T10:06:11;99140.13;;;18.26;100.00
78016;BME280;67223;51.102;5.882;2023-10-19T10:08:39;99135.00;;;18.56;100.00
78016;BME280;67223;51.102;5.882;2023-10-19T10:11:19;99132.97;;;18.82;100.00
78016;BME280;67223;51.102;5.882;2023-10-19T10:13:45;99128.16;;;19.09;100.00
78016;BME280;67223;51.102;5.882;2023-10-19T10:16:14;99120.81;;;19.16;100.00
78016;BME280;67223;51.102;5.882;2023-10-19T10:18:41;99116.44;;;19.40;100.00
78016;BME280;67223;51.102;5.882;2023-10-19T10:21:14;99118.28;;;19.83;100.00
78016;BME280;67223;51.102;5.882;2023-10-19T10:23:44;99112.91;;;20.12;100.00
78016;BME280;67223;51.102;5.882;2023-10-19T10:26:11;99105.63;;;20.31;100.00
78016;BME280;67223;51.102;5.882;2023-10-19T10:28:38;99103.44;;;20.03;100.00
78016;BME280;67223;51.102;5.882;2023-10-19T10:31:08;99112.19;;;19.69;100.00
78016;BME280;67223;51.102;5.882;2023-10-19T10:36:08;99116.63;;;19.45;100.00
78016;BME280;67223;51.102;5.882;2023-10-19T10:38:36;99127.09;;;19.35;100.00
78016;BME280;67223;51.102;5.882;2023-10-19T10:41:02;99122.13;;;19.32;100.00
78016;BME280;67223;51.102;5.882;2023-10-19T10:43:28;99135.66;;;19.32;100.00
78016;BME280;67223;51.102;5.882;2023-10-19T10:46:04;99133.03;;;19.25;100.00
78016;BME280;67223;51.102;5.882;2023-10-19T10:48:30;99122.19;;;19.01;100.00
78016;BME280;67223;51.102;5.882;2023-10-19T10:50:55;99120.19;;;19.14;100.00
78016;BME280;67223;51.102;5.882;2023-10-19T10:53:23;99108.88;;;19.24;100.00
78016;BME280;67223;51.102;5.882;2023-10-19T10:55:50;99104.28;;;19.24;100.00
78016;BME280;67223;51.102;5.882;2023-10-19T10:58:19;99107.25;;;19.41;100.00
78016;BME280;67223;51.102;5.882;2023-10-19T11:00:45;99096.53;;;19.53;100.00
78016;BME280;67223;51.102;5.882;2023-10-19T11:03:16;99094.97;;;19.82;100.00
78016;BME280;67223;51.102;5.882;2023-10-19T11:05:42;99088.69;;;19.99;100.00
78016;BME280;67223;51.102;5.882;2023-10-19T11:08:11;99083.66;;;20.51;100.00
78016;BME280;67223;51.102;5.882;2023-10-19T11:10:42;99077.69;;;20.72;100.00
78016;BME280;67223;51.102;5.882;2023-10-19T11:13:13;99076.44;;;19.97;100.00
78016;BME280;67223;51.102;5.882;2023-10-19T11:15:51;99077.16;;;20.22;100.00
78016;BME280;67223;51.102;5.882;2023-10-19T11:18:40;99076.38;;;20.33;100.00
78016;BME280;67223;51.102;5.882;2023-10-19T11:21:10;99064.66;;;20.21;100.00
78016;BME280;67223;51.102;5.882;2023-10-19T11:23:47;99066.59;;;20.02;100.00
78016;BME280;67223;51.102;5.882;2023-10-19T11:26:16;99061.66;;;20.11;100.00
78016;BME280;67223;51.102;5.882;2023-10-19T11:28:42;99073.34;;;20.23;100.00
78016;BME280;67223;51.102;5.882;2023-10-19T11:31:20;99062.16;;;19.90;100.00
78016;BME280;67223;51.102;5.882;2023-10-19T11:33:50;99057.97;;;19.57;100.00
78016;BME280;67223;51.102;5.882;2023-10-19T11:36:17;99057.03;;;19.63;100.00
78016;BME280;67223;51.102;5.882;2023-10-19T11:38:45;99057.13;;;19.57;100.00
78016;BME280;67223;51.102;5.882;2023-10-19T11:41:12;99058.28;;;19.67;100.00
78016;BME280;67223;51.102;5.882;2023-10-19T11:43:39;99056.41;;;19.25;100.00
78016;BME280;67223;51.102;5.882;2023-10-19T11:46:05;99060.63;;;19.39;100.00
78016;BME280;67223;51.102;5.882;2023-10-19T11:48:33;99053.09;;;19.23;100.00
78016;BME280;67223;51.102;5.882;2023-10-19T11:50:59;99067.28;;;19.61;100.00
78016;BME280;67223;51.102;5.882;2023-10-19T11:53:25;99063.94;;;19.41;100.00
78016;BME280;67223;51.102;5.882;2023-10-19T11:55:51;99055.22;;;19.39;100.00
78016;BME280;67223;51.102;5.882;2023-10-19T11:58:16;99050.78;;;19.26;100.00
78016;BME280;67223;51.102;5.882;2023-10-19T12:00:42;99053.69;;;19.25;100.00
78016;BME280;67223;51.102;5.882;2023-10-19T12:03:11;99063.78;;;19.36;100.00
78016;BME280;67223;51.102;5.882;2023-10-19T12:05:37;99056.19;;;19.26;100.00
78016;BME280;67223;51.102;5.882;2023-10-19T12:08:03;99066.66;;;19.41;100.00
78016;BME280;67223;51.102;5.882;2023-10-19T12:10:28;99050.69;;;19.15;100.00
78016;BME280;67223;51.102;5.882;2023-10-19T12:13:04;99061.28;;;19.34;100.00
78016;BME280;67223;51.102;5.882;2023-10-19T12:15:31;99062.75;;;19.37;100.00
78016;BME280;67223;51.102;5.882;2023-10-19T12:17:57;99053.31;;;19.21;100.00
78016;BME280;67223;51.102;5.882;2023-10-19T12:20:23;99056.09;;;19.15;100.00
78016;BME280;67223;51.102;5.882;2023-10-19T12:22:48;99048.09;;;19.02;100.00
78016;BME280;67223;51.102;5.882;2023-10-19T12:25:17;99053.69;;;19.07;100.00
78016;BME280;67223;51.102;5.882;2023-10-19T12:27:42;99061.97;;;19.12;100.00
78016;BME280;67223;51.102;5.882;2023-10-19T12:30:09;99046.75;;;19.11;100.00
78016;BME280;67223;51.102;5.882;2023-10-19T12:32:50;99059.94;;;19.07;100.00
78016;BME280;67223;51.102;5.882;2023-10-19T12:35:16;99049.44;;;18.92;100.00
78016;BME280;67223;51.102;5.882;2023-10-19T12:37:45;99043.25;;;18.85;100.00
78016;BME280;67223;51.102;5.882;2023-10-19T12:40:17;99063.31;;;19.03;100.00
78016;BME280;67223;51.102;5.882;2023-10-19T12:42:55;99058.78;;;18.97;100.00
78016;BME280;67223;51.102;5.882;2023-10-19T12:45:25;99068.81;;;18.89;100.00
78016;BME280;67223;51.102;5.882;2023-10-19T12:47:53;99053.53;;;18.77;100.00
78016;BME280;67223;51.102;5.882;2023-10-19T12:50:19;99075.88;;;18.90;100.00
78016;BME280;67223;51.102;5.882;2023-10-19T12:52:48;99088.53;;;18.97;100.00
78016;BME280;67223;51.102;5.882;2023-10-19T12:55:14;99088.78;;;18.88;100.00
78016;BME280;67223;51.102;5.882;2023-10-19T12:57:40;99098.41;;;18.84;100.00
78016;BME280;67223;51.102;5.882;2023-10-19T13:00:07;99101.81;;;18.73;100.00
78016;BME280;67223;51.102;5.882;2023-10-19T13:02:49;99088.91;;;18.75;100.00
78016;BME280;67223;51.102;5.882;2023-10-19T13:05:15;99106.97;;;18.81;100.00
78016;BME280;67223;51.102;5.882;2023-10-19T13:07:44;99092.06;;;18.72;100.00
78016;BME280;67223;51.102;5.882;2023-10-19T13:10:09;99094.31;;;18.75;100.00